createdAt,value
2019-04-14T00:01:13.178Z,14.43
2019-04-14T00:03:45.419Z,14.97
2019-04-14T00:06:13.593Z,15.70
2019-04-14T00:08:41.565Z,16.73
2019-04-14T00:11:08.468Z,15.93
2019-04-14T00:13:37.097Z,16.90
2019-04-14T00:16:05.090Z,16.13
2019-04-14T00:18:35.898Z,17.23
2019-04-14T00:21:04.772Z,16.83
2019-04-14T00:23:32.623Z,16.87
2019-04-14T00:26:25.214Z,18.40
2019-04-14T00:28:53.551Z,18.03
2019-04-14T00:31:21.639Z,17.93
2019-04-14T00:33:49.865Z,16.50
2019-04-14T00:36:19.777Z,18.57
2019-04-14T00:38:49.908Z,18.97
2019-04-14T00:41:34.345Z,18.80
2019-04-14T00:43:53.555Z,17.93
2019-04-14T00:46:25.482Z,19.70
2019-04-14T00:48:53.814Z,20.70
2019-04-14T00:51:20.652Z,19.00
2019-04-14T00:53:49.057Z,21.10
2019-04-14T00:56:17.121Z,19.83
2019-04-14T00:58:43.849Z,19.63
2019-04-14T01:01:11.212Z,21.73
2019-04-14T01:03:37.970Z,19.97
2019-04-14T01:06:05.439Z,19.87
2019-04-14T01:08:33.424Z,20.93
2019-04-14T01:11:01.004Z,21.50
2019-04-14T01:13:28.816Z,21.37
2019-04-14T01:16:03.907Z,21.20
2019-04-14T01:18:25.423Z,20.13
2019-04-14T01:20:53.529Z,21.63
2019-04-14T01:23:21.557Z,21.93
2019-04-14T01:25:48.458Z,21.90
2019-04-14T01:28:15.824Z,20.67
2019-04-14T01:30:43.627Z,23.30
2019-04-14T01:33:10.440Z,23.93
2019-04-14T01:35:37.904Z,23.33
2019-04-14T01:38:05.806Z,23.37
2019-04-14T01:40:33.785Z,23.93
2019-04-14T01:43:01.703Z,26.03
2019-04-14T01:45:29.598Z,22.53
2019-04-14T01:47:57.404Z,25.20
2019-04-14T01:50:26.161Z,22.40
2019-04-14T01:53:01.177Z,24.83
2019-04-14T01:55:33.126Z,25.43
2019-04-14T01:58:07.849Z,24.97
2019-04-14T02:00:42.815Z,26.53
2019-04-14T02:03:10.588Z,26.93
2019-04-14T02:05:38.509Z,26.57
2019-04-14T02:08:06.823Z,25.67
2019-04-14T02:10:34.726Z,24.60
2019-04-14T02:13:02.916Z,25.80
2019-04-14T02:15:30.807Z,26.80
2019-04-14T02:17:58.791Z,26.90
2019-04-14T02:20:25.722Z,26.03
2019-04-14T02:22:53.139Z,25.43
2019-04-14T02:25:20.989Z,27.57
2019-04-14T02:27:49.235Z,25.77
2019-04-14T02:30:20.828Z,27.60
2019-04-14T02:33:13.843Z,27.30
2019-04-14T02:35:47.289Z,27.40
2019-04-14T02:38:29.145Z,29.10
2019-04-14T02:43:16.816Z,29.67
2019-04-14T02:46:38.406Z,28.60
2019-04-14T02:48:15.133Z,30.13
2019-04-14T02:50:30.296Z,27.43
2019-04-14T02:53:07.765Z,27.63
2019-04-14T02:55:38.337Z,27.73
2019-04-14T02:58:03.805Z,26.57
2019-04-14T03:02:56.437Z,30.23
2019-04-14T03:05:26.861Z,26.33
2019-04-14T03:07:59.946Z,29.43
2019-04-14T03:12:57.809Z,30.53
2019-04-14T03:15:25.301Z,30.67
2019-04-14T03:20:54.791Z,28.33
2019-04-14T03:23:34.868Z,30.37
2019-04-14T03:26:17.996Z,30.57
2019-04-14T03:28:44.198Z,29.93
2019-04-14T03:38:55.032Z,33.53
2019-04-14T03:41:17.471Z,32.33
2019-04-14T03:43:39.317Z,33.03
2019-04-14T03:51:15.126Z,33.97
2019-04-14T03:53:34.702Z,33.17
2019-04-14T03:55:55.478Z,36.53
2019-04-14T03:58:18.387Z,32.90
2019-04-14T04:00:46.464Z,36.33
2019-04-14T04:03:13.547Z,37.17
2019-04-14T04:05:41.246Z,34.67
2019-04-14T04:08:09.275Z,35.47
2019-04-14T04:10:55.415Z,35.10
2019-04-14T04:13:22.105Z,36.90
2019-04-14T04:15:50.023Z,36.17
2019-04-14T04:18:24.372Z,37.07
2019-04-14T04:20:58.947Z,35.33
2019-04-14T04:23:28.971Z,38.33
2019-04-14T04:25:57.813Z,36.93
2019-04-14T04:28:45.082Z,38.90
2019-04-14T04:31:17.787Z,41.00
2019-04-14T04:34:03.305Z,39.13
2019-04-14T04:36:48.807Z,36.90
2019-04-14T04:39:17.504Z,38.70
2019-04-14T04:41:45.062Z,36.10
2019-04-14T04:44:11.777Z,38.97
2019-04-14T04:46:39.486Z,41.60
2019-04-14T04:49:13.538Z,37.80
2019-04-14T04:51:35.621Z,40.17
2019-04-14T04:54:03.874Z,39.27
2019-04-14T04:56:31.808Z,40.57
2019-04-14T04:58:58.939Z,39.80
2019-04-14T05:01:25.689Z,39.17
2019-04-14T05:03:53.535Z,41.77
2019-04-14T05:06:54.772Z,42.17
2019-04-14T05:09:29.598Z,42.00
2019-04-14T05:12:11.034Z,39.80
2019-04-14T05:14:52.378Z,39.53
2019-04-14T05:17:21.297Z,42.67
2019-04-14T05:19:48.084Z,43.03
2019-04-14T05:22:17.437Z,39.73
2019-04-14T05:24:44.070Z,42.33
2019-04-14T05:27:10.921Z,42.40
2019-04-14T05:29:38.587Z,46.88
2019-04-14T05:32:06.641Z,44.43
2019-04-14T05:34:34.553Z,45.50
2019-04-14T05:37:02.831Z,47.60
2019-04-14T05:39:30.697Z,49.33
2019-04-14T05:42:07.686Z,52.73
2019-04-14T05:44:27.477Z,52.03
2019-04-14T05:46:56.059Z,46.93
2019-04-14T05:49:31.156Z,48.10
2019-04-14T05:51:52.354Z,46.93
2019-04-14T05:54:19.169Z,48.00
2019-04-14T05:56:47.206Z,50.67
2019-04-14T05:59:13.860Z,47.17
2019-04-14T06:01:41.938Z,44.50
2019-04-14T06:04:09.352Z,46.13
2019-04-14T06:06:36.171Z,47.47
2019-04-14T06:09:06.473Z,45.27
2019-04-14T06:11:33.266Z,46.67
2019-04-14T06:13:59.899Z,46.73
2019-04-14T06:16:26.545Z,48.80
2019-04-14T06:18:53.230Z,48.73
2019-04-14T06:21:20.094Z,50.00
2019-04-14T06:23:47.204Z,49.73
2019-04-14T06:26:14.074Z,50.87
2019-04-14T06:28:41.156Z,53.80
2019-04-14T06:31:09.883Z,52.40
2019-04-14T06:33:42.859Z,53.73
2019-04-14T06:36:29.828Z,57.63
2019-04-14T06:39:16.341Z,57.20
2019-04-14T06:41:46.698Z,56.13
2019-04-14T06:44:15.948Z,56.30
2019-04-14T06:46:43.220Z,59.33
2019-04-14T06:49:10.024Z,61.57
2019-04-14T06:51:37.027Z,60.83
2019-04-14T06:54:03.975Z,56.17
2019-04-14T06:56:31.068Z,59.10
2019-04-14T06:58:58.477Z,60.23
2019-04-14T07:01:26.827Z,59.50
2019-04-14T07:03:53.778Z,60.77
2019-04-14T07:06:20.666Z,59.93
2019-04-14T07:08:47.429Z,61.23
2019-04-14T07:11:16.447Z,60.27
2019-04-14T07:13:47.971Z,63.27
2019-04-14T07:16:14.776Z,63.37
2019-04-14T07:18:41.913Z,59.10
2019-04-14T07:21:08.995Z,62.80
2019-04-14T07:23:35.757Z,64.23
2019-04-14T07:26:02.838Z,58.00
2019-04-14T07:28:29.602Z,58.70
2019-04-14T07:31:01.606Z,58.53
2019-04-14T07:33:46.967Z,59.03
2019-04-14T07:36:34.630Z,58.23
2019-04-14T07:39:18.768Z,58.13
2019-04-14T07:41:53.305Z,60.60
2019-04-14T07:44:41.813Z,58.20
2019-04-14T07:47:29.201Z,58.17
2019-04-14T07:50:14.935Z,61.37
2019-04-14T07:52:48.875Z,60.17
2019-04-14T07:55:19.330Z,58.60
2019-04-14T07:57:54.318Z,59.03
2019-04-14T08:00:37.020Z,58.80
2019-04-14T08:03:13.857Z,57.20
2019-04-14T08:05:42.499Z,61.60
2019-04-14T08:08:10.440Z,65.17
2019-04-14T08:10:39.875Z,63.30
2019-04-14T08:13:07.031Z,67.20
2019-04-14T08:15:34.448Z,67.43
2019-04-14T08:18:03.985Z,66.10
2019-04-14T08:20:31.147Z,70.93
2019-04-14T08:23:00.561Z,67.23
2019-04-14T08:25:33.139Z,67.33
2019-04-14T08:28:00.173Z,67.83
2019-04-14T08:30:30.015Z,64.93
2019-04-14T08:33:14.925Z,70.93
2019-04-14T08:35:42.719Z,71.30
2019-04-14T08:38:09.725Z,70.73
2019-04-14T08:40:45.370Z,69.77
2019-04-14T08:43:34.395Z,70.17
2019-04-14T08:49:30.415Z,70.80
2019-04-14T08:52:16.057Z,70.13
2019-04-14T08:54:58.206Z,72.97
2019-04-14T08:57:40.627Z,68.50
2019-04-14T09:00:16.723Z,71.20
2019-04-14T09:03:02.621Z,67.83
2019-04-14T09:05:31.595Z,71.13
2019-04-14T09:08:03.935Z,69.33
2019-04-14T09:10:47.213Z,72.87
2019-04-14T09:13:14.234Z,69.80
2019-04-14T09:15:40.917Z,69.37
2019-04-14T09:18:14.603Z,73.63
2019-04-14T09:20:51.691Z,72.50
2019-04-14T09:23:12.132Z,73.50
2019-04-14T09:25:44.913Z,72.00
2019-04-14T09:28:12.077Z,74.23
2019-04-14T09:30:39.545Z,73.60
2019-04-14T09:33:11.423Z,72.47
2019-04-14T09:35:40.463Z,68.73
2019-04-14T09:38:07.301Z,75.20
2019-04-14T09:40:34.125Z,72.57
2019-04-14T09:43:01.060Z,69.80
2019-04-14T09:45:29.169Z,70.63
2019-04-14T09:47:55.949Z,71.33
2019-04-14T09:50:22.821Z,70.47
2019-04-14T09:52:49.614Z,69.93
2019-04-14T09:55:16.729Z,67.40
2019-04-14T09:57:49.728Z,68.87
2019-04-14T10:00:19.383Z,68.43
2019-04-14T10:02:46.887Z,66.20
2019-04-14T10:05:15.377Z,67.80
2019-04-14T10:07:42.298Z,67.83
2019-04-14T10:10:09.435Z,72.20
2019-04-14T10:12:36.460Z,66.03
2019-04-14T10:15:04.329Z,72.40
2019-04-14T10:17:32.823Z,68.93
2019-04-14T10:19:59.877Z,64.77
2019-04-14T10:22:34.156Z,65.33
2019-04-14T10:24:58.379Z,64.63
2019-04-14T10:27:27.878Z,61.73
2019-04-14T10:29:56.779Z,61.57
2019-04-14T10:32:23.939Z,62.80
2019-04-14T10:34:50.806Z,64.23
2019-04-14T10:37:24.553Z,64.10
2019-04-14T10:39:51.782Z,71.37
2019-04-14T10:42:18.532Z,69.23
2019-04-14T10:44:45.493Z,69.10
2019-04-14T10:47:12.380Z,64.03
2019-04-14T10:49:39.536Z,69.03
2019-04-14T10:52:08.073Z,69.93
2019-04-14T10:54:36.732Z,61.37
2019-04-14T10:57:07.829Z,64.03
2019-04-14T10:59:40.318Z,60.63
2019-04-14T11:02:08.568Z,62.47
2019-04-14T11:04:35.922Z,62.37
2019-04-14T11:07:07.043Z,63.03
2019-04-14T11:09:34.193Z,64.80
2019-04-14T11:12:02.791Z,69.47
2019-04-14T11:14:34.481Z,69.40
2019-04-14T11:17:11.967Z,70.40
2019-04-14T11:19:42.677Z,73.83
2019-04-14T11:22:16.604Z,71.00
2019-04-14T11:24:46.975Z,67.63
2019-04-14T11:27:18.035Z,68.47
2019-04-14T11:29:45.291Z,66.43
2019-04-14T11:32:14.547Z,66.60
2019-04-14T11:34:52.263Z,67.40
2019-04-14T11:37:38.396Z,65.63
2019-04-14T11:40:13.520Z,70.53
2019-04-14T11:42:52.102Z,71.87
2019-04-14T11:45:14.162Z,72.20
2019-04-14T11:47:42.537Z,70.93
2019-04-14T11:50:11.629Z,70.47
2019-04-14T11:52:42.589Z,70.30
2019-04-14T11:55:11.992Z,72.40
2019-04-14T11:57:38.957Z,71.93
2019-04-14T12:00:14.641Z,69.63
2019-04-14T12:02:53.481Z,70.93
2019-04-14T12:05:41.803Z,71.47
2019-04-14T12:08:28.000Z,71.97
2019-04-14T12:10:58.872Z,69.90
2019-04-14T12:13:27.063Z,69.53
2019-04-14T12:15:57.783Z,71.33
2019-04-14T12:18:26.837Z,73.43
2019-04-14T12:20:55.876Z,66.70
2019-04-14T12:23:23.222Z,69.77
2019-04-14T12:25:50.402Z,65.33
2019-04-14T12:28:30.111Z,67.47
2019-04-14T12:31:17.441Z,64.53
2019-04-14T12:33:46.381Z,64.57
2019-04-14T12:36:16.626Z,68.57
2019-04-14T12:38:43.714Z,65.93
2019-04-14T12:41:12.684Z,65.37
2019-04-14T12:43:54.885Z,63.67
2019-04-14T12:46:24.076Z,65.73
2019-04-14T12:48:57.569Z,62.33
2019-04-14T12:51:26.596Z,63.27
2019-04-14T12:53:53.522Z,61.60
2019-04-14T12:56:25.695Z,62.50
2019-04-14T12:59:00.483Z,62.80
2019-04-14T13:01:37.457Z,65.40
2019-04-14T13:04:05.821Z,62.50
2019-04-14T13:06:35.100Z,65.20
2019-04-14T13:09:03.594Z,60.50
2019-04-14T13:11:32.569Z,66.03
2019-04-14T13:14:04.066Z,63.20
2019-04-14T13:16:34.107Z,64.07
2019-04-14T13:19:04.479Z,61.33
2019-04-14T13:21:33.610Z,62.93
2019-04-14T13:24:03.979Z,59.27
2019-04-14T13:26:34.351Z,58.10
2019-04-14T13:29:02.967Z,60.23
2019-04-14T13:31:29.874Z,61.20
2019-04-14T13:33:56.552Z,60.40
2019-04-14T13:36:34.890Z,56.80
2019-04-14T13:39:06.084Z,56.37
2019-04-14T13:41:34.924Z,56.10
2019-04-14T13:44:02.512Z,54.80
2019-04-14T13:46:30.206Z,57.30
2019-04-14T13:48:57.184Z,56.43
2019-04-14T13:51:24.713Z,53.07
2019-04-14T13:53:51.540Z,54.37
2019-04-14T13:56:18.930Z,51.10
2019-04-14T13:58:46.431Z,52.60
2019-04-14T14:01:13.819Z,51.20
2019-04-14T14:03:41.679Z,53.57
2019-04-14T14:06:10.874Z,49.80
2019-04-14T14:08:37.754Z,52.13
2019-04-14T14:11:24.721Z,52.27
2019-04-14T14:14:06.540Z,52.20
2019-04-14T14:16:38.759Z,55.13
2019-04-14T14:19:15.802Z,51.70
2019-04-14T14:21:48.565Z,51.63
2019-04-14T14:24:30.395Z,51.67
2019-04-14T14:27:01.276Z,57.53
2019-04-14T14:29:29.029Z,53.87
2019-04-14T14:31:57.524Z,52.73
2019-04-14T14:34:26.684Z,52.47
2019-04-14T14:36:57.597Z,54.50
2019-04-14T14:39:28.024Z,53.00
2019-04-14T14:41:58.188Z,54.20
2019-04-14T14:44:50.214Z,52.43
2019-04-14T14:47:25.155Z,53.63
2019-04-14T14:50:13.324Z,52.77
2019-04-14T14:52:41.285Z,51.30
2019-04-14T14:55:08.520Z,46.40
2019-04-14T14:57:35.882Z,47.10
2019-04-14T15:00:07.912Z,45.73
2019-04-14T15:02:35.217Z,44.73
2019-04-14T15:05:05.052Z,46.33
2019-04-14T15:07:32.253Z,46.27
2019-04-14T15:09:59.324Z,43.00
2019-04-14T15:12:26.459Z,45.97
2019-04-14T15:14:53.344Z,45.20
2019-04-14T15:17:21.253Z,44.57
2019-04-14T15:19:48.329Z,44.53
2019-04-14T15:22:15.329Z,39.77
2019-04-14T15:24:43.262Z,41.67
2019-04-14T15:27:10.018Z,42.30
2019-04-14T15:29:36.820Z,39.83
2019-04-14T15:32:03.792Z,40.90
2019-04-14T15:34:32.218Z,37.10
2019-04-14T15:36:59.082Z,38.60
2019-04-14T15:39:26.254Z,35.60
2019-04-14T15:41:53.279Z,38.40
2019-04-14T15:44:20.303Z,37.73
2019-04-14T15:46:47.083Z,34.73
2019-04-14T15:49:14.328Z,35.30
2019-04-14T15:51:41.273Z,33.80
2019-04-14T15:54:08.786Z,33.80
2019-04-14T15:56:52.899Z,33.80
2019-04-14T15:59:24.711Z,31.77
2019-04-14T16:02:11.637Z,35.00
2019-04-14T16:04:40.424Z,34.93
2019-04-14T16:07:25.729Z,39.53
2019-04-14T16:09:57.140Z,33.67
2019-04-14T16:12:42.517Z,32.33
2019-04-14T16:15:14.927Z,31.67
2019-04-14T16:17:49.708Z,32.20
2019-04-14T16:20:19.164Z,32.13
2019-04-14T16:22:47.251Z,34.17
2019-04-14T16:25:14.851Z,31.60
2019-04-14T16:27:52.958Z,34.53
2019-04-14T16:30:33.620Z,33.00
2019-04-14T16:33:05.580Z,32.33
2019-04-14T16:35:34.365Z,31.57
2019-04-14T16:38:01.363Z,31.83
2019-04-14T16:40:29.482Z,32.03
2019-04-14T16:42:58.865Z,32.27
2019-04-14T16:45:26.905Z,30.40
2019-04-14T16:48:05.570Z,32.23
2019-04-14T16:50:32.524Z,30.23
2019-04-14T16:53:01.438Z,29.50
2019-04-14T16:58:38.021Z,29.20
2019-04-14T17:01:15.533Z,31.13
2019-04-14T17:03:43.113Z,29.00
2019-04-14T17:06:10.387Z,29.20
2019-04-14T17:08:37.901Z,29.93
2019-04-14T17:11:05.402Z,30.30
2019-04-14T17:13:34.247Z,28.47
2019-04-14T17:16:18.467Z,28.23
2019-04-14T17:19:01.139Z,28.60
2019-04-14T17:21:38.412Z,26.80
2019-04-14T17:24:16.465Z,26.97
2019-04-14T17:26:53.315Z,26.47
2019-04-14T17:29:30.177Z,25.33
2019-04-14T17:32:15.695Z,27.23
2019-04-14T17:34:51.281Z,27.43
2019-04-14T17:37:22.979Z,28.63
2019-04-14T17:39:54.285Z,29.50
2019-04-14T17:42:32.047Z,27.10
2019-04-14T17:45:04.396Z,28.97
2019-04-14T17:47:46.834Z,28.20
2019-04-14T17:50:22.378Z,29.53
2019-04-14T17:52:57.098Z,29.40
2019-04-14T17:55:27.580Z,28.17
2019-04-14T17:57:56.379Z,28.90
2019-04-14T18:00:25.230Z,30.40
2019-04-14T18:03:10.889Z,28.40
2019-04-14T18:05:45.757Z,30.83
2019-04-14T18:08:33.801Z,31.73
2019-04-14T18:11:05.924Z,32.47
2019-04-14T18:13:52.856Z,28.93
2019-04-14T18:16:26.589Z,31.03
2019-04-14T18:18:58.073Z,31.43
2019-04-14T18:21:25.134Z,29.90
2019-04-14T18:23:52.204Z,29.33
2019-04-14T18:26:18.992Z,28.43
2019-04-14T18:28:50.400Z,27.20
2019-04-14T18:31:34.123Z,28.63
2019-04-14T18:34:06.831Z,29.60
2019-04-14T18:36:38.244Z,29.03
2019-04-14T18:39:19.959Z,27.67
2019-04-14T18:41:50.050Z,27.80
2019-04-14T18:44:21.351Z,28.13
2019-04-14T18:47:14.660Z,27.17
2019-04-14T18:50:00.918Z,31.57
2019-04-14T18:52:31.252Z,29.20
2019-04-14T18:55:02.679Z,28.57
2019-04-14T18:57:44.186Z,27.80
2019-04-14T19:00:16.579Z,28.63
2019-04-14T19:02:43.294Z,33.70
2019-04-14T19:05:10.283Z,30.57
2019-04-14T19:07:36.983Z,28.60
2019-04-14T19:10:06.870Z,27.00
2019-04-14T19:12:43.428Z,28.73
2019-04-14T19:15:19.668Z,27.00
2019-04-14T19:17:58.312Z,25.67
2019-04-14T19:20:25.955Z,25.03
2019-04-14T19:22:52.820Z,24.90
2019-04-14T19:25:20.035Z,26.37
2019-04-14T19:27:47.626Z,24.77
2019-04-14T19:30:17.864Z,27.00
2019-04-14T19:32:45.183Z,26.10
2019-04-14T19:35:16.263Z,25.23
2019-04-14T19:37:44.318Z,22.00
2019-04-14T19:40:14.106Z,22.13
2019-04-14T19:42:42.607Z,22.07
2019-04-14T19:45:12.252Z,25.07
2019-04-14T19:47:39.134Z,23.83
2019-04-14T19:50:06.135Z,22.40
2019-04-14T19:52:38.392Z,20.67
2019-04-14T19:55:20.283Z,22.70
2019-04-14T19:57:43.745Z,22.53
2019-04-14T20:00:24.858Z,25.23
2019-04-14T20:02:59.564Z,25.57
2019-04-14T20:05:34.186Z,23.57
2019-04-14T20:08:05.614Z,23.03
2019-04-14T20:10:46.325Z,24.90
2019-04-14T20:13:17.909Z,25.37
2019-04-14T20:16:09.592Z,22.73
2019-04-14T20:19:09.792Z,24.83
2019-04-14T20:22:06.107Z,24.13
2019-04-14T20:24:42.522Z,24.90
2019-04-14T20:27:36.400Z,23.53
2019-04-14T20:30:15.298Z,24.97
2019-04-14T20:32:49.523Z,24.53
2019-04-14T20:35:18.306Z,24.40
2019-04-14T20:37:55.191Z,22.73
2019-04-14T20:40:30.286Z,26.33
2019-04-14T20:42:57.743Z,27.70
2019-04-14T20:45:50.773Z,25.37
2019-04-14T20:48:16.711Z,26.53
2019-04-14T20:50:48.363Z,26.70
2019-04-14T20:53:15.479Z,29.17
2019-04-14T20:55:47.234Z,26.63
2019-04-14T20:58:16.298Z,26.23
2019-04-14T21:00:43.377Z,25.70
2019-04-14T21:03:30.750Z,25.13
2019-04-14T21:06:12.153Z,26.37
2019-04-14T21:08:58.159Z,24.33
2019-04-14T21:11:28.374Z,23.90
2019-04-14T21:13:58.560Z,25.63
2019-04-14T21:16:36.355Z,25.60
2019-04-14T21:19:17.385Z,24.97
2019-04-14T21:21:59.362Z,24.47
2019-04-14T21:24:33.896Z,24.80
2019-04-14T21:27:22.238Z,24.47
2019-04-14T21:29:57.767Z,24.30
2019-04-14T21:32:33.616Z,25.63
2019-04-14T21:35:18.917Z,26.50
2019-04-14T21:37:53.701Z,25.80
2019-04-14T21:40:22.490Z,25.10
2019-04-14T21:42:50.795Z,26.53
2019-04-14T21:45:28.722Z,26.33
2019-04-14T21:47:56.709Z,26.67
2019-04-14T21:50:25.683Z,26.37
2019-04-14T21:52:52.818Z,25.77
2019-04-14T21:55:22.360Z,26.87
2019-04-14T21:57:53.286Z,27.27
2019-04-14T22:00:45.934Z,26.97
2019-04-14T22:03:25.816Z,25.13
2019-04-14T22:06:00.998Z,26.00
2019-04-14T22:08:49.048Z,26.60
2019-04-14T22:11:20.786Z,28.10
2019-04-14T22:13:50.761Z,25.33
2019-04-14T22:16:18.443Z,26.37
2019-04-14T22:18:45.473Z,26.93
2019-04-14T22:21:12.746Z,27.47
2019-04-14T22:23:40.610Z,28.50
2019-04-14T22:26:07.598Z,26.43
2019-04-14T22:28:35.034Z,27.97
2019-04-14T22:31:01.882Z,28.13
2019-04-14T22:33:29.264Z,26.50
2019-04-14T22:35:56.097Z,26.27
2019-04-14T22:38:24.508Z,28.43
2019-04-14T22:40:53.576Z,27.00
2019-04-14T22:43:22.496Z,27.07
2019-04-14T22:45:49.530Z,24.77
2019-04-14T22:48:17.016Z,26.37
2019-04-14T22:50:50.778Z,27.10
2019-04-14T22:53:22.178Z,25.23
2019-04-14T22:55:52.047Z,27.27
2019-04-14T22:58:18.980Z,25.17
2019-04-14T23:00:56.417Z,25.70
2019-04-14T23:03:26.974Z,26.23
2019-04-14T23:06:15.656Z,26.77
2019-04-14T23:08:53.233Z,27.40
2019-04-14T23:11:38.314Z,26.20
2019-04-14T23:14:09.576Z,26.97
2019-04-14T23:16:41.203Z,26.37
2019-04-14T23:19:11.884Z,25.33
2019-04-14T23:21:43.311Z,25.77
2019-04-14T23:24:14.867Z,27.00
2019-04-14T23:26:51.856Z,26.50
2019-04-14T23:29:10.908Z,25.67
2019-04-14T23:31:37.940Z,25.93
2019-04-14T23:34:06.150Z,27.40
2019-04-14T23:36:33.168Z,26.53
2019-04-14T23:39:00.233Z,25.57
2019-04-14T23:41:27.071Z,28.77
2019-04-14T23:43:53.740Z,27.03
2019-04-14T23:46:20.604Z,26.20
2019-04-14T23:48:50.537Z,27.67
2019-04-14T23:51:19.145Z,26.60
2019-04-14T23:53:46.972Z,26.43
2019-04-14T23:56:13.636Z,27.13
2019-04-14T23:58:40.398Z,27.60
